createdAt,value
2023-03-03T00:02:05.312Z,100439.94
2023-03-03T00:04:53.940Z,100431.03
2023-03-03T00:07:44.750Z,100438.69
2023-03-03T00:10:33.515Z,100434.94
2023-03-03T00:13:23.568Z,100356.75
2023-03-03T00:16:16.419Z,100419.25
2023-03-03T00:19:14.308Z,100371.38
2023-03-03T00:22:02.797Z,100436.19
2023-03-03T00:24:51.314Z,100432.44
2023-03-03T00:27:39.792Z,100435.94
2023-03-03T00:30:29.099Z,100441.34
2023-03-03T00:33:28.014Z,100404.75
2023-03-03T00:36:33.666Z,100436.59
2023-03-03T00:39:28.532Z,100455.81
2023-03-03T00:42:18.688Z,100376.22
2023-03-03T00:45:24.155Z,100432.31
2023-03-03T00:48:41.043Z,100438.97
2023-03-03T00:51:33.088Z,100433.84
2023-03-03T00:54:21.600Z,100441.75
2023-03-03T00:57:10.147Z,100433.53
2023-03-03T00:59:58.626Z,100443.56
2023-03-03T01:02:48.428Z,100437.69
2023-03-03T01:05:37.444Z,100445.94
2023-03-03T01:08:27.315Z,100441.31
2023-03-03T01:11:18.763Z,100323.34
2023-03-03T01:14:07.340Z,100443.97
2023-03-03T01:16:55.862Z,100438.13
2023-03-03T01:19:44.334Z,100425.47
2023-03-03T01:22:32.883Z,100336.28
2023-03-03T01:25:22.757Z,100439.94
2023-03-03T01:28:11.522Z,100438.97
2023-03-03T01:31:02.134Z,100444.25
2023-03-03T01:33:50.885Z,100443.41
2023-03-03T01:36:39.386Z,100436.28
2023-03-03T01:39:27.948Z,100435.31
2023-03-03T01:42:17.838Z,100431.94
2023-03-03T01:45:19.062Z,100432.91
2023-03-03T01:48:11.013Z,100442.22
2023-03-03T01:51:02.511Z,100421.63
2023-03-03T01:53:52.749Z,100445.28
2023-03-03T01:56:42.628Z,100425.53
2023-03-03T01:59:35.337Z,100416.91
2023-03-03T02:02:24.901Z,100434.00
2023-03-03T02:05:13.931Z,100432.88
2023-03-03T02:08:02.623Z,100432.25
2023-03-03T02:10:51.604Z,100429.19
2023-03-03T02:13:40.073Z,100431.69
2023-03-03T02:16:30.188Z,100422.69
2023-03-03T02:19:23.468Z,100425.06
2023-03-03T02:22:12.461Z,100425.09
2023-03-03T02:25:02.623Z,100421.91
2023-03-03T02:27:52.502Z,100428.41
2023-03-03T02:30:41.535Z,100416.25
2023-03-03T02:33:30.532Z,100420.66
2023-03-03T02:36:21.302Z,100422.44
2023-03-03T02:39:12.472Z,100434.63
2023-03-03T02:42:04.812Z,100440.00
2023-03-03T02:44:54.675Z,100441.81
2023-03-03T02:47:43.094Z,100434.38
2023-03-03T02:50:31.558Z,100436.03
2023-03-03T02:53:20.080Z,100445.50
2023-03-03T02:56:09.912Z,100442.56
2023-03-03T02:58:58.645Z,100397.06
2023-03-03T03:01:48.825Z,100434.66
2023-03-03T03:04:38.650Z,100443.94
2023-03-03T03:07:27.389Z,100437.13
2023-03-03T03:10:16.931Z,100435.28
2023-03-03T03:13:05.439Z,100442.09
2023-03-03T03:15:54.200Z,100445.50
2023-03-03T03:18:44.022Z,100402.25
2023-03-03T03:21:33.165Z,100447.91
2023-03-03T03:24:21.654Z,100449.75
2023-03-03T03:27:10.412Z,100448.75
2023-03-03T03:29:58.902Z,100464.38
2023-03-03T03:32:47.396Z,100460.53
2023-03-03T03:35:37.906Z,100404.94
2023-03-03T03:38:27.129Z,100453.97
2023-03-03T03:41:15.676Z,100462.25
2023-03-03T03:44:04.160Z,100456.47
2023-03-03T03:46:52.609Z,100439.69
2023-03-03T03:49:41.136Z,100453.88
2023-03-03T03:52:31.009Z,100465.16
2023-03-03T03:55:19.527Z,100462.69
2023-03-03T03:58:08.017Z,100461.53
2023-03-03T04:00:56.685Z,100464.63
2023-03-03T04:03:45.176Z,100464.03
2023-03-03T04:06:33.958Z,100459.88
2023-03-03T04:09:23.861Z,100453.19
2023-03-03T04:12:12.493Z,100446.41
2023-03-03T04:15:00.936Z,100461.38
2023-03-03T04:17:49.456Z,100465.94
2023-03-03T04:20:37.973Z,100467.41
2023-03-03T04:23:26.486Z,100467.03
2023-03-03T04:26:16.304Z,100461.63
2023-03-03T04:29:05.005Z,100412.97
2023-03-03T04:31:53.578Z,100474.41
2023-03-03T04:34:42.064Z,100471.94
2023-03-03T04:37:30.566Z,100473.78
2023-03-03T04:40:19.228Z,100471.50
2023-03-03T04:43:09.161Z,100471.22
2023-03-03T04:45:57.699Z,100464.34
2023-03-03T04:48:46.489Z,100475.19
2023-03-03T04:51:34.949Z,100472.13
2023-03-03T04:54:23.417Z,100479.91
2023-03-03T04:57:11.909Z,100471.31
2023-03-03T05:00:01.747Z,100476.34
2023-03-03T05:02:50.230Z,100459.34
2023-03-03T05:05:38.732Z,100476.53
2023-03-03T05:08:27.281Z,100467.09
2023-03-03T05:11:15.949Z,100480.84
2023-03-03T05:14:04.549Z,100486.84
2023-03-03T05:16:54.590Z,100497.31
2023-03-03T05:19:43.249Z,100479.56
2023-03-03T05:22:31.700Z,100485.88
2023-03-03T05:25:20.380Z,100478.63
2023-03-03T05:28:08.863Z,100479.53
2023-03-03T05:30:57.345Z,100485.72
2023-03-03T05:33:47.307Z,100484.91
2023-03-03T05:36:36.230Z,100490.22
2023-03-03T05:39:24.878Z,100494.53
2023-03-03T05:42:14.191Z,100498.31
2023-03-03T05:45:02.731Z,100504.59
2023-03-03T05:47:51.544Z,100504.47
2023-03-03T05:50:41.382Z,100505.47
2023-03-03T05:53:30.193Z,100500.59
2023-03-03T05:56:18.802Z,100405.63
2023-03-03T05:59:07.290Z,100455.75
2023-03-03T06:01:55.804Z,100521.22
2023-03-03T06:04:44.601Z,100525.59
2023-03-03T06:07:34.444Z,100525.59
2023-03-03T06:10:22.976Z,100517.13
2023-03-03T06:13:11.512Z,100531.72
2023-03-03T06:16:00.238Z,100510.53
2023-03-03T06:18:49.163Z,100532.69
2023-03-03T06:21:37.695Z,100540.50
2023-03-03T06:24:30.196Z,100544.72
2023-03-03T06:27:18.672Z,100547.47
2023-03-03T06:30:08.469Z,100549.31
2023-03-03T06:32:57.004Z,100556.38
2023-03-03T06:35:47.549Z,100532.25
2023-03-03T06:38:36.067Z,100556.88
2023-03-03T06:41:25.986Z,100559.91
2023-03-03T06:44:14.547Z,100558.00
2023-03-03T06:47:03.549Z,100508.63
2023-03-03T06:49:51.986Z,100568.03
2023-03-03T06:52:40.649Z,100559.72
2023-03-03T06:55:29.225Z,100572.28
2023-03-03T06:58:20.533Z,100572.44
2023-03-03T07:01:14.794Z,100584.28
2023-03-03T07:04:06.047Z,100578.94
2023-03-03T07:06:54.562Z,100552.44
2023-03-03T07:09:45.420Z,100542.13
2023-03-03T07:12:33.960Z,100572.94
2023-03-03T07:15:26.071Z,100577.00
2023-03-03T07:18:26.780Z,100580.81
2023-03-03T07:21:20.025Z,100581.94
2023-03-03T07:24:20.031Z,100588.97
2023-03-03T07:27:13.417Z,100534.66
2023-03-03T07:30:19.531Z,100590.16
2023-03-03T07:33:21.247Z,100587.78
2023-03-03T07:36:24.110Z,100590.75
2023-03-03T07:39:26.448Z,100594.59
2023-03-03T07:42:22.879Z,100601.91
2023-03-03T07:45:23.872Z,100602.19
2023-03-03T07:48:20.694Z,100609.44
2023-03-03T07:51:15.160Z,100612.50
2023-03-03T07:54:18.927Z,100594.13
2023-03-03T07:57:16.358Z,100616.31
2023-03-03T08:00:50.657Z,100625.53
2023-03-03T08:03:40.653Z,100615.47
2023-03-03T08:06:47.886Z,100625.66
2023-03-03T08:09:43.564Z,100627.06
2023-03-03T08:12:41.832Z,100624.00
2023-03-03T08:15:33.299Z,100618.44
2023-03-03T08:18:26.444Z,100540.72
2023-03-03T08:21:17.222Z,100623.31
2023-03-03T08:24:06.671Z,100576.88
2023-03-03T08:26:55.187Z,100616.53
2023-03-03T08:29:43.631Z,100624.03
2023-03-03T08:32:32.246Z,100629.91
2023-03-03T08:35:20.933Z,100628.13
2023-03-03T08:38:11.991Z,100638.13
2023-03-03T08:41:00.602Z,100636.72
2023-03-03T08:43:49.103Z,100625.00
2023-03-03T08:46:37.750Z,100626.56
2023-03-03T08:49:26.261Z,100633.97
2023-03-03T08:52:14.782Z,100627.72
2023-03-03T08:55:04.800Z,100629.75
2023-03-03T08:57:53.346Z,100627.78
2023-03-03T09:00:42.052Z,100635.44
2023-03-03T09:03:30.969Z,100621.78
2023-03-03T09:06:19.444Z,100649.03
2023-03-03T09:09:07.978Z,100649.13
2023-03-03T09:12:00.556Z,100631.28
2023-03-03T09:14:49.306Z,100647.97
2023-03-03T09:17:38.669Z,100623.91
2023-03-03T09:20:39.715Z,100670.75
2023-03-03T09:23:35.676Z,100665.59
2023-03-03T09:26:30.473Z,100664.41
2023-03-03T09:29:26.358Z,100670.41
2023-03-03T09:32:25.729Z,100671.25
2023-03-03T09:35:37.508Z,100676.91
2023-03-03T09:38:31.619Z,100674.09
2023-03-03T09:41:41.447Z,100669.44
2023-03-03T09:45:02.534Z,100655.94
2023-03-03T09:48:14.804Z,100665.41
2023-03-03T09:51:15.020Z,100662.91
2023-03-03T09:54:16.540Z,100671.38
2023-03-03T09:57:10.295Z,100680.09
2023-03-03T10:00:16.228Z,100677.09
2023-03-03T10:03:38.877Z,100680.09
2023-03-03T10:06:29.969Z,100677.59
2023-03-03T10:09:35.597Z,100684.25
2023-03-03T10:12:28.402Z,100679.09
2023-03-03T10:15:35.254Z,100685.06
2023-03-03T10:18:33.559Z,100583.47
2023-03-03T10:21:26.168Z,100672.22
2023-03-03T10:24:25.048Z,100677.00
2023-03-03T10:27:26.028Z,100673.31
2023-03-03T10:30:33.239Z,100612.25
2023-03-03T10:33:34.618Z,100664.22
2023-03-03T10:36:34.095Z,100675.81
2023-03-03T10:39:48.175Z,100678.25
2023-03-03T10:42:47.007Z,100671.91
2023-03-03T10:46:05.392Z,100675.00
2023-03-03T10:49:07.276Z,100680.97
2023-03-03T10:52:08.991Z,100668.44
2023-03-03T10:55:25.187Z,100672.34
2023-03-03T10:58:33.828Z,100586.44
2023-03-03T11:01:30.400Z,100680.38
2023-03-03T11:04:39.298Z,100687.94
2023-03-03T11:07:30.273Z,100691.47
2023-03-03T11:10:25.327Z,100692.97
2023-03-03T11:13:24.066Z,100682.03
2023-03-03T11:16:19.473Z,100690.16
2023-03-03T11:19:20.818Z,100687.38
2023-03-03T11:22:24.455Z,100685.09
2023-03-03T11:25:21.466Z,100592.19
2023-03-03T11:28:30.727Z,100681.28
2023-03-03T11:31:22.675Z,100677.72
2023-03-03T11:34:18.183Z,100677.59
2023-03-03T11:37:09.863Z,100679.16
2023-03-03T11:40:07.301Z,100642.41
2023-03-03T11:43:02.720Z,100669.38
2023-03-03T11:45:54.459Z,100659.41
2023-03-03T11:48:48.395Z,100627.66
2023-03-03T11:51:45.807Z,100667.38
2023-03-03T11:54:39.415Z,100663.56
2023-03-03T11:57:31.804Z,100648.94
2023-03-03T12:00:25.573Z,100647.66
2023-03-03T12:03:36.752Z,100655.91
2023-03-03T12:06:31.383Z,100656.16
2023-03-03T12:09:28.642Z,100622.09
2023-03-03T12:12:20.435Z,100651.81
2023-03-03T12:15:24.484Z,100638.84
2023-03-03T12:18:33.169Z,100648.44
2023-03-03T12:21:33.599Z,100631.31
2023-03-03T12:24:33.973Z,100636.94
2023-03-03T12:27:26.817Z,100618.09
2023-03-03T12:30:24.298Z,100629.25
2023-03-03T12:33:20.323Z,100615.91
2023-03-03T12:36:18.168Z,100620.84
2023-03-03T12:39:10.105Z,100626.06
2023-03-03T12:42:05.242Z,100627.94
2023-03-03T12:45:02.930Z,100619.81
2023-03-03T12:47:58.056Z,100622.22
2023-03-03T12:50:59.091Z,100618.78
2023-03-03T12:53:59.246Z,100588.03
2023-03-03T12:56:51.767Z,100597.88
2023-03-03T12:59:46.075Z,100619.09
2023-03-03T13:02:42.609Z,100603.94
2023-03-03T13:05:39.351Z,100615.84
2023-03-03T13:08:38.102Z,100614.38
2023-03-03T13:11:47.318Z,100616.59
2023-03-03T13:14:41.637Z,100616.09
2023-03-03T13:17:33.540Z,100611.03
2023-03-03T13:20:30.086Z,100615.25
2023-03-03T13:23:32.168Z,100614.94
2023-03-03T13:26:24.436Z,100611.69
2023-03-03T13:29:18.194Z,100605.38
2023-03-03T13:32:12.890Z,100601.03
2023-03-03T13:35:04.283Z,100559.28
2023-03-03T13:37:55.876Z,100605.97
2023-03-03T13:40:47.550Z,100597.88
2023-03-03T13:43:42.173Z,100596.31
2023-03-03T13:46:36.758Z,100596.19
2023-03-03T13:49:38.252Z,100581.47
2023-03-03T13:52:29.164Z,100586.38
2023-03-03T13:55:23.191Z,100590.63
2023-03-03T13:58:23.558Z,100581.41
2023-03-03T14:01:17.388Z,100577.66
2023-03-03T14:04:15.318Z,100573.91
2023-03-03T14:07:11.733Z,100574.00
2023-03-03T14:10:04.598Z,100570.56
2023-03-03T14:13:01.850Z,100564.19
2023-03-03T14:15:57.019Z,100561.28
2023-03-03T14:18:55.511Z,100567.38
2023-03-03T14:21:50.833Z,100548.38
2023-03-03T14:24:58.074Z,100558.16
2023-03-03T14:28:02.194Z,100560.03
2023-03-03T14:30:55.158Z,100552.94
2023-03-03T14:33:44.727Z,100557.28
2023-03-03T14:36:42.811Z,100560.97
2023-03-03T14:39:34.472Z,100554.41
2023-03-03T14:42:34.131Z,100560.22
2023-03-03T14:45:31.907Z,100558.50
2023-03-03T14:48:23.646Z,100569.34
2023-03-03T14:51:27.196Z,100561.88
2023-03-03T14:54:22.518Z,100560.81
2023-03-03T14:57:16.378Z,100548.16
2023-03-03T15:00:16.995Z,100547.41
2023-03-03T15:03:23.408Z,100550.47
2023-03-03T15:06:13.382Z,100552.06
2023-03-03T15:09:29.715Z,100537.13
2023-03-03T15:12:21.297Z,100538.16
2023-03-03T15:15:19.075Z,100537.47
2023-03-03T15:18:13.256Z,100538.22
2023-03-03T15:21:06.344Z,100502.38
2023-03-03T15:23:57.883Z,100532.88
2023-03-03T15:26:49.133Z,100534.53
2023-03-03T15:29:39.388Z,100535.09
2023-03-03T15:32:31.255Z,100541.81
2023-03-03T15:35:31.587Z,100494.28
2023-03-03T15:38:29.386Z,100527.50
2023-03-03T15:41:27.658Z,100533.31
2023-03-03T15:44:20.367Z,100533.81
2023-03-03T15:47:27.282Z,100528.91
2023-03-03T15:50:30.878Z,100522.75
2023-03-03T15:53:31.771Z,100543.25
2023-03-03T15:56:27.386Z,100519.19
2023-03-03T15:59:27.709Z,100531.59
2023-03-03T16:02:18.577Z,100533.16
2023-03-03T16:05:16.386Z,100530.66
2023-03-03T16:08:13.600Z,100524.19
2023-03-03T16:11:08.851Z,100540.00
2023-03-03T16:14:05.955Z,100543.63
2023-03-03T16:16:57.951Z,100553.50
2023-03-03T16:19:50.748Z,100516.16
2023-03-03T16:22:59.463Z,100556.34
2023-03-03T16:25:59.562Z,100554.16
2023-03-03T16:29:02.800Z,100557.28
2023-03-03T16:31:54.592Z,100562.09
2023-03-03T16:34:48.683Z,100567.38
2023-03-03T16:37:39.951Z,100562.03
2023-03-03T16:40:31.805Z,100563.31
2023-03-03T16:43:24.412Z,100567.59
2023-03-03T16:46:23.195Z,100536.75
2023-03-03T16:49:17.405Z,100569.50
2023-03-03T16:52:09.702Z,100577.44
2023-03-03T16:55:01.140Z,100582.31
2023-03-03T16:57:58.661Z,100587.59
2023-03-03T17:00:53.138Z,100591.00
2023-03-03T17:03:55.380Z,100592.53
2023-03-03T17:06:48.931Z,100596.13
2023-03-03T17:09:52.169Z,100597.66
2023-03-03T17:12:52.217Z,100595.69
2023-03-03T17:15:46.042Z,100584.50
2023-03-03T17:18:41.999Z,100599.19
2023-03-03T17:21:39.933Z,100603.16
2023-03-03T17:24:37.683Z,100613.44
2023-03-03T17:27:29.630Z,100613.56
2023-03-03T17:30:22.525Z,100617.94
2023-03-03T17:33:23.744Z,100624.72
2023-03-03T17:36:27.429Z,100625.81
2023-03-03T17:39:44.856Z,100623.72
2023-03-03T17:42:38.815Z,100632.06
2023-03-03T17:45:29.154Z,100573.41
2023-03-03T17:48:40.135Z,100637.69
2023-03-03T17:51:47.635Z,100641.56
2023-03-03T17:54:50.841Z,100647.41
2023-03-03T17:57:51.213Z,100638.78
2023-03-03T18:00:48.504Z,100658.78
2023-03-03T18:03:53.659Z,100658.44
2023-03-03T18:07:11.905Z,100652.06
2023-03-03T18:10:25.185Z,100661.72
2023-03-03T18:13:22.528Z,100663.03
2023-03-03T18:16:22.324Z,100666.81
2023-03-03T18:19:27.482Z,100672.09
2023-03-03T18:22:21.504Z,100671.25
2023-03-03T18:25:11.990Z,100675.88
2023-03-03T18:28:22.877Z,100674.31
2023-03-03T18:31:22.838Z,100683.94
2023-03-03T18:34:29.023Z,100685.72
2023-03-03T18:37:37.073Z,100694.00
2023-03-03T18:40:34.010Z,100688.44
2023-03-03T18:43:52.167Z,100664.03
2023-03-03T18:47:02.001Z,100681.16
2023-03-03T18:49:57.581Z,100684.13
2023-03-03T18:53:09.259Z,100673.69
2023-03-03T18:55:59.283Z,100690.47
2023-03-03T18:58:52.283Z,100699.75
2023-03-03T19:01:43.790Z,100690.19
2023-03-03T19:04:36.491Z,100696.41
2023-03-03T19:07:29.953Z,100693.16
2023-03-03T19:10:53.463Z,100709.75
2023-03-03T19:13:47.931Z,100679.63
2023-03-03T19:16:38.445Z,100714.78
2023-03-03T19:19:32.630Z,100693.66
2023-03-03T19:22:24.899Z,100695.25
2023-03-03T19:25:32.686Z,100709.16
2023-03-03T19:28:31.541Z,100711.44
2023-03-03T19:31:27.036Z,100709.38
2023-03-03T19:34:23.129Z,100712.06
2023-03-03T19:37:24.230Z,100715.88
2023-03-03T19:40:19.616Z,100707.94
2023-03-03T19:43:16.379Z,100686.66
2023-03-03T19:46:20.610Z,100717.78
2023-03-03T19:49:18.354Z,100723.00
2023-03-03T19:52:13.855Z,100723.03
2023-03-03T19:55:24.475Z,100722.53
2023-03-03T19:58:22.310Z,100734.25
2023-03-03T20:01:17.544Z,100735.28
2023-03-03T20:04:28.282Z,100711.47
2023-03-03T20:07:29.132Z,100721.50
2023-03-03T20:10:31.307Z,100736.16
2023-03-03T20:13:35.093Z,100744.25
2023-03-03T20:16:30.347Z,100737.28
2023-03-03T20:19:31.092Z,100749.59
2023-03-03T20:22:26.491Z,100748.88
2023-03-03T20:25:26.756Z,100755.72
2023-03-03T20:28:36.364Z,100749.44
2023-03-03T20:31:30.692Z,100762.56
2023-03-03T20:34:24.166Z,100745.81
2023-03-03T20:37:17.397Z,100745.94
2023-03-03T20:40:11.943Z,100761.00
2023-03-03T20:43:08.347Z,100752.81
2023-03-03T20:46:02.763Z,100763.41
2023-03-03T20:49:04.267Z,100763.25
2023-03-03T20:51:57.233Z,100763.53
2023-03-03T20:54:50.629Z,100764.63
2023-03-03T20:57:46.961Z,100688.47
2023-03-03T21:00:39.569Z,100764.91
2023-03-03T21:03:34.113Z,100772.44
2023-03-03T21:06:25.582Z,100771.44
2023-03-03T21:09:24.880Z,100777.97
2023-03-03T21:12:28.839Z,100776.03
2023-03-03T21:15:26.240Z,100774.72
2023-03-03T21:18:22.109Z,100721.03
2023-03-03T21:21:10.728Z,100769.84
2023-03-03T21:23:59.669Z,100783.72
2023-03-03T21:26:50.905Z,100787.69
2023-03-03T21:29:40.765Z,100790.47
2023-03-03T21:32:41.523Z,100801.06
2023-03-03T21:35:30.204Z,100791.31
2023-03-03T21:38:33.439Z,100793.00
2023-03-03T21:41:22.243Z,100792.19
2023-03-03T21:44:41.924Z,100790.94
2023-03-03T21:47:30.504Z,100794.22
2023-03-03T21:50:21.332Z,100794.09
2023-03-03T21:53:09.851Z,100788.81
2023-03-03T21:55:58.381Z,100553.34
2023-03-03T21:58:46.933Z,100769.09
2023-03-03T22:01:38.380Z,100786.53
2023-03-03T22:04:27.473Z,100734.91
2023-03-03T22:07:16.196Z,100789.50
2023-03-03T22:10:05.158Z,100797.69
2023-03-03T22:12:53.679Z,100795.19
2023-03-03T22:15:42.247Z,100797.00
2023-03-03T22:18:32.092Z,100782.75
2023-03-03T22:21:20.641Z,100780.22
2023-03-03T22:24:09.707Z,100790.53
2023-03-03T22:26:58.216Z,100790.38
2023-03-03T22:29:46.818Z,100793.53
2023-03-03T22:32:35.346Z,100787.34
2023-03-03T22:35:25.298Z,100799.31
2023-03-03T22:38:13.859Z,100797.91
2023-03-03T22:41:02.643Z,100805.97
2023-03-03T22:43:51.168Z,100812.28
2023-03-03T22:46:39.715Z,100812.53
2023-03-03T22:49:28.807Z,100799.38
2023-03-03T22:52:18.638Z,100821.06
2023-03-03T22:55:08.366Z,100812.59
2023-03-03T22:57:57.150Z,100812.47
2023-03-03T23:00:45.643Z,100852.53
2023-03-03T23:03:34.214Z,100811.72
2023-03-03T23:06:22.788Z,100818.00
2023-03-03T23:09:12.661Z,100815.84
2023-03-03T23:12:01.919Z,100814.75
2023-03-03T23:14:50.410Z,100821.38
2023-03-03T23:17:38.871Z,100810.34
2023-03-03T23:20:29.654Z,100821.41
2023-03-03T23:23:18.098Z,100793.16
2023-03-03T23:26:07.967Z,100819.38
2023-03-03T23:28:56.594Z,100810.53
2023-03-03T23:31:45.233Z,100824.22
2023-03-03T23:34:33.991Z,100789.38
2023-03-03T23:37:22.554Z,100820.53
2023-03-03T23:40:12.555Z,100826.78
2023-03-03T23:43:02.380Z,100823.16
2023-03-03T23:45:50.904Z,100805.41
2023-03-03T23:48:39.361Z,100824.72
2023-03-03T23:51:27.847Z,100838.28
2023-03-03T23:54:16.337Z,100840.09
2023-03-03T23:57:07.870Z,100828.81
2023-03-03T23:59:57.692Z,100842.00
